Terminal Aerodrome Forecast
Issued by NWS Sterling, VA

Home | Current Version | Previous Version | Text Only | Print | Product List | Glossary On
Versions: 1 2 3 4 5 6 7 8 9 10 11 12 13 14 15 16 17 18
000
FTUS41 KLWX 290027 AAA
TAFMRB
TAF AMD
KMRB 290027Z 2900/2924 VRB03KT P6SM SCT050
      TEMPO 2900/2901 18010G20KT
     FM290300 12004KT 3SM BR SCT050
     FM290600 VRB03KT 1SM BR SCT050
     FM291200 VRB03KT 3SM BR SCT050
     FM291300 VRB03KT P6SM SCT050
     FM291700 16007KT P6SM SCT050=

USA.gov is the U.S. government's official web portal to all federal, state and local government web resources and services.